Hestand, KY (42151)

12:59 PM CDT on August 30, 2014 (GMT -0500)
Center Point Ky | Change Station
CLOSE
Current Station
Personal Weather Station
Location: Tompkinsville, KY
Elevation: 740 ft
Nearby Weather Stations

Elev 740 ft 36.72 °N, 85.51 °W | Updated 8 minutes ago

Mostly Cloudy
Mostly Cloudy
83.1 °F
Feels Like 88 °F
N
4.2
Wind Variable Wind from SSW

Today
High -- | Low -- °F
--% Chance of Precip.
Yesterday
High -- | Low -- °F
Precip. -- in
6:11 AM 7:13 PM
Waxing Crescent, 23% visible
Pressure 30.10 in
Visibility 10.0 miles
Clouds Mostly Cloudy 6500 ft
Heat Index 88 °F
Dew Point 72 °F
Humidity 69%
Rainfall 0.00 in
Snow Depth Not available.
UV 5 out of 12
Pollen 8.00 out of 12
Air Quality Not available.
Flu Activity Not available.
METAR KGLW 301735Z AUTO 21007KT 10SM -RA BKN065 28/20 A3010 RMK AO2 T02750203

More Conditions Fewer Conditions

Pressure 30.10 in
Visibility 10.0 miles
Clouds Mostly Cloudy 6500 ft
Heat Index 88 °F
Dew Point 72 °F
Humidity 69%
Rainfall 0.00 in
Snow Depth Not available.
UV 5 out of 12
Pollen 8.00 out of 12
Air Quality Not available.
Flu Activity Not available.
METAR KGLW 301735Z AUTO 21007KT 10SM -RA BKN065 28/20 A3010 RMK AO2 T02750203

More Conditions Fewer Conditions

10-Day Weather Forecast

Almanac

Astronomy

Aug. 30, 2014 Rise Set
Actual Time 6:11 AM CDT 7:13 PM CDT
Civil Twilight 5:45 AM CDT 7:39 PM CDT
Nautical Twilight 5:13 AM CDT 8:11 PM CDT
Astronomical Twilight 4:41 AM CDT 8:43 PM CDT
Moon 10:50 AM CDT 9:56 PM CDT
Length of Visible Light 13h 54m
Length of Day
13h 01m
Tomorrow will be 2m 14s shorter.
Waxing Crescent, 23% of the Moon is Illuminated
Today
Waxing Crescent
Sep 2
First Quarter
Sep 8
Full
Sep 15
Last Quarter
Sep 24
New

Today's Extremes

State Highs State Lows

Community

WunderPhotos

Upload Photos

1,748,581 photos uploaded!

WunderBlogs® & News

Nearby

Snow Depth

Station Depth Elevation
No new snow has been reported.

Earthquake Activity

City Distance Mag. Time & Date
No recent earthquake activity has been reported nearby.
Minimum magnitude displayed is 2.5.

Coastal Water Temperatures

Place Temperature
No Stations Reporting

Nearby Weather Stations